createdAt,value
2023-03-13T00:00:54.418Z,5.10
2023-03-13T00:01:54.439Z,5.40
2023-03-13T00:02:54.382Z,6.00
2023-03-13T00:03:54.341Z,5.80
2023-03-13T00:04:54.339Z,5.00
2023-03-13T00:05:54.284Z,5.60
2023-03-13T00:06:54.272Z,5.20
2023-03-13T00:07:54.249Z,4.70
2023-03-13T00:08:54.209Z,4.90
2023-03-13T00:09:54.181Z,5.20
2023-03-13T00:10:54.159Z,4.90
2023-03-13T00:11:54.127Z,4.70
2023-03-13T00:12:54.129Z,5.40
2023-03-13T00:13:54.076Z,4.50
2023-03-13T00:14:54.054Z,5.30
2023-03-13T00:15:54.024Z,6.20
2023-03-13T00:16:54.071Z,5.20
2023-03-13T00:17:53.978Z,4.80
2023-03-13T00:18:53.956Z,4.90
2023-03-13T00:19:53.925Z,5.10
2023-03-13T00:20:53.897Z,5.10
2023-03-13T00:21:53.877Z,4.90
2023-03-13T00:22:53.851Z,4.50
2023-03-13T00:23:53.821Z,4.90
2023-03-13T00:24:53.802Z,5.40
2023-03-13T00:25:53.772Z,5.00
2023-03-13T00:26:53.752Z,5.60
2023-03-13T00:27:53.721Z,5.80
2023-03-13T00:28:53.720Z,5.80
2023-03-13T00:29:53.674Z,5.20
2023-03-13T00:30:53.730Z,4.50
2023-03-13T00:31:53.680Z,4.50
2023-03-13T00:32:53.678Z,4.60
2023-03-13T00:33:53.613Z,5.50
2023-03-13T00:34:53.548Z,5.10
2023-03-13T00:35:53.558Z,4.80
2023-03-13T00:36:53.502Z,4.30
2023-03-13T00:37:53.467Z,4.70
2023-03-13T00:38:53.448Z,4.10
2023-03-13T00:39:53.420Z,4.60
2023-03-13T00:40:53.392Z,4.70
2023-03-13T00:41:53.366Z,4.60
2023-03-13T00:42:53.343Z,4.90
2023-03-13T00:43:53.314Z,4.50
2023-03-13T00:44:53.310Z,4.30
2023-03-13T00:45:53.333Z,4.60
2023-03-13T00:46:53.239Z,4.80
2023-03-13T00:47:53.212Z,4.80
2023-03-13T00:48:53.204Z,4.80
2023-03-13T00:49:53.162Z,7.00
2023-03-13T00:50:53.139Z,4.40
2023-03-13T00:51:53.110Z,4.20
2023-03-13T00:52:53.084Z,4.60
2023-03-13T00:53:53.059Z,4.90
2023-03-13T00:54:53.061Z,4.50
2023-03-13T00:55:53.019Z,4.40
2023-03-13T00:56:52.985Z,5.10
2023-03-13T00:57:52.964Z,5.40
2023-03-13T00:58:52.936Z,4.80
2023-03-13T00:59:52.915Z,4.70
2023-03-13T01:00:52.930Z,4.40
2023-03-13T01:01:52.859Z,4.30
2023-03-13T01:02:53.034Z,4.70
2023-03-13T01:03:52.814Z,5.50
2023-03-13T01:04:52.782Z,4.90
2023-03-13T01:05:52.755Z,4.60
2023-03-13T01:06:52.743Z,4.40
2023-03-13T01:07:52.712Z,4.10
2023-03-13T01:08:52.690Z,5.00
2023-03-13T01:09:52.660Z,6.20
2023-03-13T01:10:52.636Z,5.10
2023-03-13T01:11:52.616Z,5.80
2023-03-13T01:12:52.585Z,5.30
2023-03-13T01:13:52.563Z,5.40
2023-03-13T01:14:52.539Z,5.40
2023-03-13T01:15:52.567Z,5.10
2023-03-13T01:16:52.600Z,5.10
2023-03-13T01:17:52.455Z,5.00
2023-03-13T01:18:52.462Z,4.90
2023-03-13T01:19:52.417Z,4.90
2023-03-13T01:20:52.383Z,4.70
2023-03-13T01:21:52.357Z,4.90
2023-03-13T01:22:52.345Z,5.10
2023-03-13T01:23:52.321Z,6.20
2023-03-13T01:24:52.278Z,4.20
2023-03-13T01:25:52.253Z,4.90
2023-03-13T01:26:52.229Z,4.90
2023-03-13T01:27:52.221Z,5.60
2023-03-13T01:28:52.178Z,5.10
2023-03-13T01:29:52.156Z,5.60
2023-03-13T01:30:52.252Z,4.90
2023-03-13T01:31:52.103Z,5.30
2023-03-13T01:32:52.188Z,5.60
2023-03-13T01:33:52.119Z,4.70
2023-03-13T01:34:52.027Z,5.70
2023-03-13T01:35:52.092Z,5.40
2023-03-13T01:36:51.980Z,5.30
2023-03-13T01:37:51.954Z,5.90
2023-03-13T01:38:51.922Z,5.30
2023-03-13T01:39:51.901Z,5.40
2023-03-13T01:40:51.876Z,5.00
2023-03-13T01:41:51.857Z,5.10
2023-03-13T01:42:51.838Z,5.30
2023-03-13T01:43:51.811Z,5.20
2023-03-13T01:44:51.791Z,5.00
2023-03-13T01:45:51.751Z,5.10
2023-03-13T01:46:51.827Z,5.70
2023-03-13T01:47:51.698Z,5.90
2023-03-13T01:48:51.692Z,5.30
2023-03-13T01:49:51.644Z,5.20
2023-03-13T01:50:51.618Z,4.90
2023-03-13T01:51:51.597Z,4.90
2023-03-13T01:52:51.568Z,5.50
2023-03-13T01:53:51.542Z,5.80
2023-03-13T01:54:51.533Z,5.20
2023-03-13T01:55:51.489Z,5.40
2023-03-13T01:56:51.464Z,5.00
2023-03-13T01:57:51.442Z,5.90
2023-03-13T01:58:51.416Z,5.50
2023-03-13T01:59:51.398Z,5.10
2023-03-13T02:00:51.369Z,5.60
2023-03-13T02:01:51.379Z,6.00
2023-03-13T02:02:51.453Z,5.10
2023-03-13T02:03:51.289Z,5.60
2023-03-13T02:04:51.286Z,5.60
2023-03-13T02:05:51.249Z,5.70
2023-03-13T02:06:51.223Z,5.50
2023-03-13T02:07:51.195Z,5.80
2023-03-13T02:08:51.165Z,6.20
2023-03-13T02:09:51.231Z,5.90
2023-03-13T02:10:51.107Z,4.90
2023-03-13T02:11:51.086Z,6.30
2023-03-13T02:12:51.054Z,5.60
2023-03-13T02:13:51.032Z,4.70
2023-03-13T02:14:51.002Z,5.50
2023-03-13T02:15:51.021Z,5.40
2023-03-13T02:16:50.956Z,5.70
2023-03-13T02:17:50.933Z,6.50
2023-03-13T02:18:50.900Z,5.00
2023-03-13T02:19:50.881Z,5.70
2023-03-13T02:20:50.874Z,5.70
2023-03-13T02:21:50.831Z,6.00
2023-03-13T02:22:50.805Z,5.80
2023-03-13T02:23:50.777Z,5.30
2023-03-13T02:24:50.754Z,5.00
2023-03-13T02:25:50.722Z,6.50
2023-03-13T02:26:50.702Z,6.00
2023-03-13T02:27:50.675Z,5.40
2023-03-13T02:28:50.648Z,5.50
2023-03-13T02:29:50.622Z,5.10
2023-03-13T02:30:50.591Z,5.70
2023-03-13T02:31:50.587Z,5.20
2023-03-13T02:32:50.586Z,6.00
2023-03-13T02:33:50.515Z,5.90
2023-03-13T02:34:50.488Z,5.40
2023-03-13T02:35:50.525Z,5.60
2023-03-13T02:36:50.554Z,5.80
2023-03-13T02:37:50.410Z,6.70
2023-03-13T02:38:50.387Z,5.80
2023-03-13T02:39:50.364Z,5.80
2023-03-13T02:40:50.335Z,6.30
2023-03-13T02:41:50.321Z,6.10
2023-03-13T02:42:50.288Z,5.90
2023-03-13T02:43:50.264Z,6.30
2023-03-13T02:44:50.236Z,6.70
2023-03-13T02:45:50.208Z,5.90
2023-03-13T02:46:50.349Z,5.60
2023-03-13T02:47:50.164Z,5.60
2023-03-13T02:48:50.134Z,6.20
2023-03-13T02:49:50.114Z,6.30
2023-03-13T02:50:50.080Z,6.20
2023-03-13T02:51:50.063Z,5.60
2023-03-13T02:52:50.069Z,6.00
2023-03-13T02:53:50.006Z,7.00
2023-03-13T02:54:49.982Z,6.50
2023-03-13T02:55:49.960Z,5.50
2023-03-13T02:56:49.933Z,5.70
2023-03-13T02:57:49.907Z,6.80
2023-03-13T02:58:50.714Z,5.70
2023-03-13T02:59:49.858Z,7.10
2023-03-13T03:00:49.870Z,6.60
2023-03-13T03:01:49.805Z,6.90
2023-03-13T03:02:49.775Z,7.30
2023-03-13T03:03:49.870Z,6.10
2023-03-13T03:04:49.723Z,5.60
2023-03-13T03:05:49.703Z,6.30
2023-03-13T03:06:49.674Z,6.10
2023-03-13T03:07:49.650Z,7.50
2023-03-13T03:08:49.649Z,7.00
2023-03-13T03:09:49.597Z,7.80
2023-03-13T03:10:49.577Z,7.80
2023-03-13T03:11:49.561Z,6.60
2023-03-13T03:12:49.530Z,7.30
2023-03-13T03:13:49.504Z,7.30
2023-03-13T03:14:49.471Z,6.40
2023-03-13T03:15:49.445Z,7.40
2023-03-13T03:16:49.464Z,7.20
2023-03-13T03:17:49.399Z,7.70
2023-03-13T03:18:49.373Z,6.60
2023-03-13T03:19:49.347Z,6.50
2023-03-13T03:20:49.319Z,6.20
2023-03-13T03:21:49.289Z,8.00
2023-03-13T03:22:49.270Z,7.60
2023-03-13T03:23:49.238Z,6.90
2023-03-13T03:24:49.231Z,6.90
2023-03-13T03:25:49.184Z,7.30
2023-03-13T03:26:49.156Z,7.00
2023-03-13T03:27:49.137Z,7.40
2023-03-13T03:28:49.101Z,7.80
2023-03-13T03:29:49.075Z,7.30
2023-03-13T03:30:49.056Z,7.20
2023-03-13T03:31:49.215Z,7.20
2023-03-13T03:32:49.150Z,7.20
2023-03-13T03:33:48.984Z,7.80
2023-03-13T03:34:48.952Z,8.40
2023-03-13T03:35:48.969Z,7.90
2023-03-13T03:36:48.898Z,7.00
2023-03-13T03:37:48.871Z,6.50
2023-03-13T03:38:48.841Z,7.00
2023-03-13T03:39:48.827Z,6.80
2023-03-13T03:40:48.826Z,7.70
2023-03-13T03:41:48.799Z,8.70
2023-03-13T03:42:48.762Z,6.60
2023-03-13T03:43:48.712Z,8.00
2023-03-13T03:44:48.693Z,7.20
2023-03-13T03:45:48.722Z,7.50
2023-03-13T03:46:48.744Z,6.60
2023-03-13T03:47:48.616Z,6.80
2023-03-13T03:48:48.586Z,7.90
2023-03-13T03:49:48.567Z,7.10
2023-03-13T03:50:48.531Z,7.20
2023-03-13T03:51:48.524Z,7.20
2023-03-13T03:52:48.480Z,7.10
2023-03-13T03:53:48.473Z,7.30
2023-03-13T03:54:48.434Z,8.00
2023-03-13T03:55:48.409Z,7.90
2023-03-13T03:56:48.406Z,6.70
2023-03-13T03:57:48.363Z,7.10
2023-03-13T03:58:48.340Z,6.40
2023-03-13T03:59:48.310Z,7.40
2023-03-13T04:00:48.283Z,7.70
2023-03-13T04:01:48.287Z,7.80
2023-03-13T04:02:48.231Z,8.20
2023-03-13T04:03:48.366Z,7.20
2023-03-13T04:04:48.178Z,8.30
2023-03-13T04:05:48.162Z,7.70
2023-03-13T04:06:48.125Z,8.50
2023-03-13T04:07:48.106Z,7.50
2023-03-13T04:08:48.081Z,8.60
2023-03-13T04:09:48.056Z,7.30
2023-03-13T04:10:48.033Z,7.70
2023-03-13T04:11:48.015Z,8.50
2023-03-13T04:12:48.006Z,7.60
2023-03-13T04:13:47.975Z,8.20
2023-03-13T04:14:47.926Z,7.90
2023-03-13T04:15:47.905Z,8.30
2023-03-13T04:16:47.961Z,8.40
2023-03-13T04:17:47.870Z,8.20
2023-03-13T04:18:47.826Z,9.80
2023-03-13T04:19:47.803Z,9.40
2023-03-13T04:20:47.770Z,9.80
2023-03-13T04:21:47.750Z,9.20
2023-03-13T04:22:47.716Z,9.30
2023-03-13T04:23:47.701Z,9.80
2023-03-13T04:24:47.685Z,8.70
2023-03-13T04:25:47.647Z,9.00
2023-03-13T04:26:47.627Z,9.60
2023-03-13T04:27:47.594Z,9.60
2023-03-13T04:28:47.600Z,10.10
2023-03-13T04:29:47.547Z,9.70
2023-03-13T04:30:47.560Z,9.80
2023-03-13T04:31:47.492Z,10.30
2023-03-13T04:32:47.513Z,9.80
2023-03-13T04:33:47.442Z,10.20
2023-03-13T04:34:47.426Z,9.60
2023-03-13T04:35:47.585Z,10.20
2023-03-13T04:36:47.364Z,9.80
2023-03-13T04:37:47.342Z,9.20
2023-03-13T04:38:47.314Z,10.10
2023-03-13T04:39:47.318Z,11.00
2023-03-13T04:40:47.266Z,10.80
2023-03-13T04:41:47.244Z,9.90
2023-03-13T04:42:47.214Z,9.90
2023-03-13T04:43:47.189Z,9.80
2023-03-13T04:44:47.186Z,10.80
2023-03-13T04:45:47.151Z,10.30
2023-03-13T04:46:47.115Z,11.10
2023-03-13T04:47:47.092Z,10.60
2023-03-13T04:48:47.069Z,10.40
2023-03-13T04:49:47.047Z,9.80
2023-03-13T04:50:47.002Z,10.30
2023-03-13T04:51:46.985Z,10.00
2023-03-13T04:52:49.485Z,10.60
2023-03-13T04:53:46.933Z,10.70
2023-03-13T04:54:46.907Z,10.50
2023-03-13T04:55:46.885Z,10.10
2023-03-13T04:56:46.853Z,10.60
2023-03-13T04:57:46.845Z,9.80
2023-03-13T04:58:47.098Z,9.60
2023-03-13T04:59:46.787Z,11.00
2023-03-13T05:00:46.772Z,10.40
2023-03-13T05:01:46.811Z,11.10
2023-03-13T05:02:46.706Z,10.70
2023-03-13T05:03:46.677Z,11.90
2023-03-13T05:04:46.707Z,11.80
2023-03-13T05:05:46.621Z,10.70
2023-03-13T05:06:46.601Z,11.10
2023-03-13T05:07:46.576Z,12.60
2023-03-13T05:08:46.566Z,10.90
2023-03-13T05:09:46.524Z,11.70
2023-03-13T05:10:46.505Z,11.80
2023-03-13T05:11:46.474Z,11.80
2023-03-13T05:12:46.453Z,11.70
2023-03-13T05:13:46.427Z,12.50
2023-03-13T05:14:46.406Z,13.10
2023-03-13T05:15:46.508Z,12.70
2023-03-13T05:16:46.375Z,13.80
2023-03-13T05:17:46.323Z,12.80
2023-03-13T05:18:46.296Z,12.90
2023-03-13T05:19:46.271Z,13.20
2023-03-13T05:20:46.274Z,13.30
2023-03-13T05:21:46.217Z,14.20
2023-03-13T05:22:46.200Z,13.60
2023-03-13T05:23:46.179Z,13.70
2023-03-13T05:24:46.149Z,14.10
2023-03-13T05:25:46.121Z,14.10
2023-03-13T05:26:46.099Z,15.20
2023-03-13T05:27:46.071Z,14.80
2023-03-13T05:28:46.047Z,14.10
2023-03-13T05:29:46.023Z,13.80
2023-03-13T05:30:46.034Z,14.60
2023-03-13T05:31:45.969Z,13.70
2023-03-13T05:32:46.090Z,14.30
2023-03-13T05:33:45.921Z,14.20
2023-03-13T05:34:45.894Z,14.10
2023-03-13T05:35:45.922Z,14.00
2023-03-13T05:36:45.866Z,14.40
2023-03-13T05:37:45.816Z,14.10
2023-03-13T05:38:45.803Z,14.00
2023-03-13T05:39:45.766Z,14.80
2023-03-13T05:40:45.747Z,14.70
2023-03-13T05:41:45.713Z,15.60
2023-03-13T05:42:45.691Z,14.50
2023-03-13T05:43:45.659Z,14.50
2023-03-13T05:44:45.643Z,15.90
2023-03-13T05:45:45.612Z,15.80
2023-03-13T05:46:45.722Z,16.90
2023-03-13T05:47:45.563Z,16.50
2023-03-13T05:48:45.568Z,15.40
2023-03-13T05:49:45.512Z,15.10
2023-03-13T05:50:45.488Z,16.30
2023-03-13T05:51:45.458Z,17.00
2023-03-13T05:52:45.440Z,16.10
2023-03-13T05:53:45.415Z,16.20
2023-03-13T05:54:45.390Z,16.10
2023-03-13T05:55:45.359Z,18.00
2023-03-13T05:56:45.338Z,16.00
2023-03-13T05:57:45.306Z,17.70
2023-03-13T05:58:45.285Z,18.30
2023-03-13T05:59:45.252Z,18.00
2023-03-13T06:00:45.229Z,17.60
2023-03-13T06:01:45.210Z,18.40
2023-03-13T06:02:45.180Z,19.10
2023-03-13T06:03:45.378Z,19.90
2023-03-13T06:04:45.321Z,19.20
2023-03-13T06:05:45.104Z,20.20
2023-03-13T06:06:45.080Z,20.80
2023-03-13T06:07:45.051Z,20.50
2023-03-13T06:08:45.029Z,21.60
2023-03-13T06:09:45.002Z,21.10
2023-03-13T06:10:44.979Z,21.80
2023-03-13T06:11:44.954Z,22.70
2023-03-13T06:12:44.931Z,22.00
2023-03-13T06:13:44.907Z,23.30
2023-03-13T06:14:44.876Z,23.70
2023-03-13T06:15:44.898Z,24.40
2023-03-13T06:16:44.824Z,25.10
2023-03-13T06:17:44.795Z,26.50
2023-03-13T06:18:44.777Z,25.80
2023-03-13T06:19:44.753Z,26.90
2023-03-13T06:20:44.751Z,27.40
2023-03-13T06:21:44.703Z,27.00
2023-03-13T06:22:44.690Z,26.90
2023-03-13T06:23:44.646Z,27.60
2023-03-13T06:24:44.632Z,27.50
2023-03-13T06:25:44.595Z,26.20
2023-03-13T06:26:44.571Z,26.40
2023-03-13T06:27:44.548Z,27.20
2023-03-13T06:28:44.561Z,26.60
2023-03-13T06:29:44.531Z,27.10
2023-03-13T06:30:44.488Z,26.40
2023-03-13T06:31:44.543Z,26.20
2023-03-13T06:32:44.569Z,27.10
2023-03-13T06:33:44.397Z,28.90
2023-03-13T06:34:44.373Z,27.20
2023-03-13T06:35:55.573Z,27.20
2023-03-13T06:36:44.347Z,26.90
2023-03-13T06:37:44.299Z,24.70
2023-03-13T06:38:44.284Z,26.40
2023-03-13T06:39:44.249Z,26.00
2023-03-13T06:40:45.843Z,26.40
2023-03-13T06:41:44.214Z,25.10
2023-03-13T06:42:44.180Z,23.60
2023-03-13T06:43:44.158Z,22.70
2023-03-13T06:44:44.141Z,23.40
2023-03-13T06:45:44.101Z,23.50
2023-03-13T06:46:44.107Z,23.70
2023-03-13T06:47:44.061Z,23.30
2023-03-13T06:48:44.032Z,22.40
2023-03-13T06:49:44.002Z,22.80
2023-03-13T06:50:43.987Z,22.90
2023-03-13T06:51:43.952Z,22.60
2023-03-13T06:52:44.483Z,22.80
2023-03-13T06:53:43.916Z,21.60
2023-03-13T06:54:43.883Z,21.20
2023-03-13T06:55:43.858Z,21.20
2023-03-13T06:56:43.827Z,21.40
2023-03-13T06:57:43.804Z,21.30
2023-03-13T06:58:43.779Z,21.70
2023-03-13T06:59:43.756Z,20.10
2023-03-13T07:00:43.777Z,20.30
2023-03-13T07:01:43.712Z,20.30
2023-03-13T07:02:43.687Z,19.60
2023-03-13T07:03:43.718Z,19.70
2023-03-13T07:04:45.175Z,19.80
2023-03-13T07:05:43.612Z,19.10
2023-03-13T07:06:43.597Z,19.50
2023-03-13T07:07:43.567Z,19.00
2023-03-13T07:08:43.566Z,19.80
2023-03-13T07:09:43.522Z,18.90
2023-03-13T07:10:43.497Z,19.10
2023-03-13T07:11:43.457Z,22.20
2023-03-13T07:12:43.451Z,19.40
2023-03-13T07:13:43.414Z,17.80
2023-03-13T07:14:43.387Z,18.20
2023-03-13T07:15:43.368Z,16.60
2023-03-13T07:16:43.503Z,16.60
2023-03-13T07:17:43.439Z,17.20
2023-03-13T07:18:43.295Z,15.80
2023-03-13T07:19:43.270Z,15.70
2023-03-13T07:20:43.316Z,15.50
2023-03-13T07:21:43.228Z,13.70
2023-03-13T07:22:43.205Z,14.60
2023-03-13T07:23:43.170Z,13.40
2023-03-13T07:24:43.240Z,14.10
2023-03-13T07:25:43.131Z,13.20
2023-03-13T07:26:57.739Z,12.90
2023-03-13T07:27:43.074Z,12.10
2023-03-13T07:28:43.055Z,12.60
2023-03-13T07:29:43.018Z,12.00
2023-03-13T07:30:43.002Z,12.10
2023-03-13T07:31:43.032Z,11.30
2023-03-13T07:32:43.032Z,10.00
2023-03-13T07:33:42.920Z,11.20
2023-03-13T07:34:42.899Z,10.50
2023-03-13T07:35:42.874Z,10.00
2023-03-13T07:36:42.849Z,10.20
2023-03-13T07:37:42.835Z,11.00
2023-03-13T07:38:42.802Z,10.80
2023-03-13T07:39:42.779Z,9.80
2023-03-13T07:40:42.773Z,10.20
2023-03-13T07:41:42.721Z,10.50
2023-03-13T07:42:42.705Z,9.20
2023-03-13T07:43:42.704Z,9.40
2023-03-13T07:44:42.697Z,9.20
2023-03-13T07:45:42.721Z,9.50
2023-03-13T07:46:42.611Z,9.30
2023-03-13T07:47:42.592Z,8.70
2023-03-13T07:48:42.572Z,9.20
2023-03-13T07:49:42.527Z,8.30
2023-03-13T07:50:42.567Z,8.50
2023-03-13T07:51:44.379Z,8.30
2023-03-13T07:52:42.473Z,7.60
2023-03-13T07:53:42.428Z,7.70
2023-03-13T07:54:42.410Z,6.90
2023-03-13T07:55:42.385Z,7.40
2023-03-13T07:56:42.383Z,7.00
2023-03-13T07:57:42.336Z,7.40
2023-03-13T07:58:42.316Z,6.90
2023-03-13T07:59:42.285Z,6.20
2023-03-13T08:00:42.265Z,7.00
2023-03-13T08:01:42.255Z,6.60
2023-03-13T08:02:42.342Z,6.30
2023-03-13T08:03:42.243Z,6.10
2023-03-13T08:04:42.170Z,6.00
2023-03-13T08:05:42.140Z,5.70
2023-03-13T08:06:42.126Z,6.30
2023-03-13T08:07:42.087Z,5.70
2023-03-13T08:08:42.075Z,5.70
2023-03-13T08:09:42.045Z,5.70
2023-03-13T08:10:42.028Z,5.30
2023-03-13T08:11:41.992Z,5.50
2023-03-13T08:12:41.993Z,5.20
2023-03-13T08:13:41.948Z,5.00
2023-03-13T08:14:41.933Z,5.20
2023-03-13T08:15:41.911Z,5.00
2023-03-13T08:16:41.939Z,5.20
2023-03-13T08:17:41.851Z,4.70
2023-03-13T08:18:41.827Z,5.00
2023-03-13T08:19:41.791Z,5.00
2023-03-13T08:20:42.908Z,4.70
2023-03-13T08:21:41.766Z,4.60
2023-03-13T08:22:41.729Z,4.10
2023-03-13T08:23:41.708Z,4.60
2023-03-13T08:24:41.680Z,4.40
2023-03-13T08:25:41.649Z,5.10
2023-03-13T08:26:41.653Z,4.30
2023-03-13T08:27:41.607Z,5.10
2023-03-13T08:28:41.594Z,4.40
2023-03-13T08:29:41.552Z,4.40
2023-03-13T08:30:41.569Z,4.80
2023-03-13T08:31:41.499Z,4.60
2023-03-13T08:32:41.548Z,4.10
2023-03-13T08:33:41.454Z,4.50
2023-03-13T08:34:41.546Z,4.20
2023-03-13T08:35:41.483Z,4.80
2023-03-13T08:36:41.391Z,4.20
2023-03-13T08:37:41.364Z,4.30
2023-03-13T08:38:41.350Z,4.80
2023-03-13T08:39:41.313Z,4.00
2023-03-13T08:40:41.286Z,5.00
2023-03-13T08:41:41.265Z,3.90
2023-03-13T08:42:41.244Z,4.30
2023-03-13T08:43:41.216Z,3.70
2023-03-13T08:44:41.214Z,4.90
2023-03-13T08:45:41.171Z,4.50
2023-03-13T08:46:41.278Z,5.10
2023-03-13T08:47:41.118Z,4.50
2023-03-13T08:48:41.099Z,5.10
2023-03-13T08:49:41.079Z,5.10
2023-03-13T08:50:41.046Z,4.80
2023-03-13T08:51:41.025Z,5.20
2023-03-13T08:52:41.004Z,5.30
2023-03-13T08:53:40.994Z,5.30
2023-03-13T08:54:40.955Z,5.00
2023-03-13T08:55:40.933Z,4.60
2023-03-13T08:56:40.931Z,4.80
2023-03-13T08:57:40.878Z,5.00
2023-03-13T08:58:40.859Z,5.30
2023-03-13T08:59:40.838Z,6.00
2023-03-13T09:00:40.834Z,5.10
2023-03-13T09:01:40.783Z,5.40
2023-03-13T09:02:40.823Z,5.20
2023-03-13T09:03:40.830Z,4.70
2023-03-13T09:04:40.717Z,5.10
2023-03-13T09:05:54.832Z,5.10
2023-03-13T09:06:40.665Z,4.90
2023-03-13T09:07:40.640Z,5.20
2023-03-13T09:08:40.625Z,5.70
2023-03-13T09:09:40.597Z,5.20
2023-03-13T09:10:40.577Z,5.40
2023-03-13T09:11:40.553Z,4.90
2023-03-13T09:12:40.526Z,4.90
2023-03-13T09:13:40.502Z,4.60
2023-03-13T09:14:40.495Z,4.90
2023-03-13T09:15:40.504Z,4.90
2023-03-13T09:16:40.473Z,5.20
2023-03-13T09:17:40.444Z,5.00
2023-03-13T09:18:40.381Z,5.00
2023-03-13T09:19:54.124Z,4.70
2023-03-13T09:20:40.333Z,4.20
2023-03-13T09:21:40.317Z,4.40
2023-03-13T09:22:40.286Z,4.70
2023-03-13T09:23:40.277Z,5.20
2023-03-13T09:24:40.236Z,4.00
2023-03-13T09:25:40.212Z,4.70
2023-03-13T09:26:46.516Z,4.90
2023-03-13T09:27:40.169Z,5.30
2023-03-13T09:28:40.135Z,4.50
2023-03-13T09:29:40.115Z,4.60
2023-03-13T09:30:40.094Z,5.00
2023-03-13T09:31:40.101Z,4.00
2023-03-13T09:32:40.102Z,4.60
2023-03-13T09:33:40.030Z,3.70
2023-03-13T09:34:39.998Z,4.10
2023-03-13T09:35:40.017Z,4.20
2023-03-13T09:36:39.956Z,3.90
2023-03-13T09:37:39.941Z,3.80
2023-03-13T09:38:39.905Z,3.80
2023-03-13T09:39:39.894Z,3.90
2023-03-13T09:40:39.855Z,4.40
2023-03-13T09:41:39.836Z,3.20
2023-03-13T09:42:39.814Z,3.70
2023-03-13T09:43:39.786Z,3.60
2023-03-13T09:44:39.752Z,3.70
2023-03-13T09:45:39.742Z,3.70
2023-03-13T09:46:39.770Z,4.00
2023-03-13T09:47:39.702Z,3.90
2023-03-13T09:48:39.743Z,3.30
2023-03-13T09:49:39.657Z,3.70
2023-03-13T09:50:39.613Z,3.60
2023-03-13T09:51:39.596Z,3.30
2023-03-13T09:52:39.570Z,3.60
2023-03-13T09:53:39.558Z,3.40
2023-03-13T09:54:39.528Z,3.50
2023-03-13T09:55:39.502Z,3.50
2023-03-13T09:56:39.477Z,3.30
2023-03-13T09:57:39.449Z,3.30
2023-03-13T09:58:39.427Z,3.80
2023-03-13T09:59:39.407Z,3.50
2023-03-13T10:00:39.389Z,2.90
2023-03-13T10:01:39.437Z,3.60
2023-03-13T10:02:39.337Z,5.00
2023-03-13T10:03:39.319Z,4.20
2023-03-13T10:04:41.718Z,3.20
2023-03-13T10:05:39.262Z,3.70
2023-03-13T10:06:39.238Z,3.00
2023-03-13T10:07:39.224Z,3.40
2023-03-13T10:08:39.191Z,6.60
2023-03-13T10:09:39.175Z,2.90
2023-03-13T10:10:39.154Z,2.60
2023-03-13T10:11:39.124Z,3.10
2023-03-13T10:12:39.104Z,3.00
2023-03-13T10:13:39.095Z,3.50
2023-03-13T10:14:39.060Z,3.90
2023-03-13T10:15:39.052Z,3.40
2023-03-13T10:16:39.082Z,3.60
2023-03-13T10:17:38.990Z,3.60
2023-03-13T10:18:38.960Z,3.30
2023-03-13T10:19:38.937Z,3.00
2023-03-13T10:20:38.938Z,3.10
2023-03-13T10:21:38.892Z,3.20
2023-03-13T10:22:38.864Z,3.40
2023-03-13T10:23:38.858Z,3.70
2023-03-13T10:24:38.831Z,2.90
2023-03-13T10:25:38.796Z,3.20
2023-03-13T10:26:38.773Z,3.50
2023-03-13T10:27:38.750Z,2.80
2023-03-13T10:28:38.730Z,2.90
2023-03-13T10:29:38.753Z,2.80
2023-03-13T10:30:38.691Z,2.80
2023-03-13T10:31:38.759Z,2.40
2023-03-13T10:32:38.660Z,2.80
2023-03-13T10:33:38.611Z,2.50
2023-03-13T10:34:38.591Z,5.70
2023-03-13T10:35:38.632Z,2.80
2023-03-13T10:36:38.566Z,4.10
2023-03-13T10:37:38.520Z,4.80
2023-03-13T10:38:38.499Z,11.60
2023-03-13T10:39:38.482Z,5.10
2023-03-13T10:40:38.454Z,10.60
2023-03-13T10:41:38.434Z,5.40
2023-03-13T10:42:38.406Z,3.60
2023-03-13T10:43:38.391Z,3.30
2023-03-13T10:44:38.363Z,4.90
2023-03-13T10:45:38.341Z,3.20
2023-03-13T10:46:38.351Z,3.10
2023-03-13T10:47:38.299Z,3.90
2023-03-13T10:48:38.270Z,3.10
2023-03-13T10:49:38.249Z,3.10
2023-03-13T10:50:38.225Z,4.70
2023-03-13T10:51:38.207Z,3.30
2023-03-13T10:52:38.200Z,2.90
2023-03-13T10:53:38.166Z,2.70
2023-03-13T10:54:38.134Z,3.00
2023-03-13T10:55:38.113Z,3.40
2023-03-13T10:56:38.089Z,3.10
2023-03-13T10:57:38.069Z,3.30
2023-03-13T10:58:38.045Z,3.60
2023-03-13T10:59:38.026Z,4.80
2023-03-13T11:00:38.003Z,4.20
2023-03-13T11:01:37.977Z,2.80
2023-03-13T11:02:38.177Z,2.80
2023-03-13T11:03:38.048Z,2.60
2023-03-13T11:04:37.908Z,3.40
2023-03-13T11:05:37.893Z,2.60
2023-03-13T11:06:37.861Z,2.60
2023-03-13T11:07:37.846Z,3.30
2023-03-13T11:08:37.897Z,3.10
2023-03-13T11:09:37.799Z,3.20
2023-03-13T11:10:37.771Z,2.90
2023-03-13T11:11:37.751Z,2.70
2023-03-13T11:12:37.726Z,2.80
2023-03-13T11:13:38.353Z,4.40
2023-03-13T11:14:37.697Z,3.20
2023-03-13T11:15:37.668Z,2.60
2023-03-13T11:16:37.730Z,4.60
2023-03-13T11:17:37.638Z,3.10
2023-03-13T11:18:37.598Z,3.30
2023-03-13T11:19:37.578Z,3.00
2023-03-13T11:20:37.587Z,2.90
2023-03-13T11:21:37.535Z,2.90
2023-03-13T11:22:37.518Z,2.70
2023-03-13T11:23:37.485Z,2.30
2023-03-13T11:24:37.487Z,2.40
2023-03-13T11:25:37.440Z,3.60
2023-03-13T11:26:37.426Z,2.20
2023-03-13T11:27:37.496Z,2.50
2023-03-13T11:28:37.367Z,2.30
2023-03-13T11:29:37.385Z,2.60
2023-03-13T11:30:37.324Z,2.30
2023-03-13T11:31:37.320Z,2.60
2023-03-13T11:32:37.397Z,2.30
2023-03-13T11:33:37.264Z,2.20
2023-03-13T11:34:37.233Z,2.70
2023-03-13T11:35:37.252Z,2.30
2023-03-13T11:36:37.195Z,2.50
2023-03-13T11:37:37.186Z,2.50
2023-03-13T11:38:37.199Z,3.00
2023-03-13T11:39:37.173Z,2.40
2023-03-13T11:40:37.146Z,2.30
2023-03-13T11:41:37.238Z,2.00
2023-03-13T11:42:37.055Z,2.30
2023-03-13T11:43:37.031Z,2.40
2023-03-13T11:44:37.011Z,2.50
2023-03-13T11:45:37.005Z,2.40
2023-03-13T11:46:37.278Z,2.60
2023-03-13T11:47:36.966Z,2.50
2023-03-13T11:48:36.925Z,2.40
2023-03-13T11:49:39.590Z,2.20
2023-03-13T11:50:36.875Z,2.20
2023-03-13T11:51:36.923Z,2.60
2023-03-13T11:52:36.827Z,2.40
2023-03-13T11:53:36.817Z,2.50
2023-03-13T11:54:36.784Z,2.30
2023-03-13T11:55:36.778Z,2.40
2023-03-13T11:56:36.762Z,2.10
2023-03-13T11:57:36.725Z,2.40
2023-03-13T11:58:36.706Z,2.10
2023-03-13T11:59:36.694Z,2.20
2023-03-13T12:00:36.763Z,2.60
2023-03-13T12:01:36.633Z,2.20
2023-03-13T12:02:36.747Z,2.30
2023-03-13T12:03:36.737Z,2.40
2023-03-13T12:04:36.586Z,2.60
2023-03-13T12:05:36.615Z,2.50
2023-03-13T12:06:36.522Z,2.50
2023-03-13T12:07:36.511Z,3.10
2023-03-13T12:08:36.482Z,3.50
2023-03-13T12:09:36.455Z,2.50
2023-03-13T12:10:36.433Z,2.60
2023-03-13T12:11:36.411Z,2.50
2023-03-13T12:12:36.414Z,2.80
2023-03-13T12:13:36.371Z,2.50
2023-03-13T12:14:36.355Z,2.30
2023-03-13T12:15:36.335Z,2.50
2023-03-13T12:16:36.338Z,2.30
2023-03-13T12:17:36.329Z,2.40
2023-03-13T12:18:36.257Z,2.50
2023-03-13T12:19:36.230Z,2.40
2023-03-13T12:20:36.229Z,2.30
2023-03-13T12:21:36.223Z,3.10
2023-03-13T12:22:36.161Z,2.10
2023-03-13T12:23:36.170Z,2.00
2023-03-13T12:24:36.124Z,1.90
2023-03-13T12:25:38.769Z,2.00
2023-03-13T12:26:36.073Z,2.20
2023-03-13T12:27:36.056Z,1.90
2023-03-13T12:28:36.156Z,1.90
2023-03-13T12:29:36.013Z,1.80
2023-03-13T12:30:36.096Z,2.40
2023-03-13T12:31:35.980Z,1.80
2023-03-13T12:32:35.985Z,1.90
2023-03-13T12:33:35.940Z,2.10
2023-03-13T12:34:35.925Z,2.00
2023-03-13T12:35:35.888Z,1.80
2023-03-13T12:36:35.859Z,1.70
2023-03-13T12:37:35.842Z,1.90
2023-03-13T12:38:35.817Z,1.90
2023-03-13T12:39:35.806Z,1.80
2023-03-13T12:40:35.780Z,2.20
2023-03-13T12:41:35.754Z,1.80
2023-03-13T12:42:35.730Z,1.90
2023-03-13T12:43:35.708Z,1.50
2023-03-13T12:44:35.709Z,1.50
2023-03-13T12:45:35.740Z,1.50
2023-03-13T12:46:35.662Z,1.80
2023-03-13T12:47:35.623Z,1.70
2023-03-13T12:48:35.690Z,1.70
2023-03-13T12:49:35.598Z,1.70
2023-03-13T12:50:35.551Z,1.70
2023-03-13T12:51:35.535Z,2.20
2023-03-13T12:52:35.539Z,2.00
2023-03-13T12:53:35.583Z,3.90
2023-03-13T12:54:35.465Z,1.80
2023-03-13T12:55:35.494Z,1.40
2023-03-13T12:56:35.436Z,1.30
2023-03-13T12:57:35.482Z,1.50
2023-03-13T12:58:35.375Z,1.00
2023-03-13T12:59:35.372Z,1.40
2023-03-13T13:00:35.355Z,1.50
2023-03-13T13:01:35.347Z,1.30
2023-03-13T13:02:35.300Z,1.50
2023-03-13T13:03:35.272Z,1.40
2023-03-13T13:04:35.265Z,1.20
2023-03-13T13:05:35.222Z,1.20
2023-03-13T13:06:35.196Z,1.20
2023-03-13T13:07:35.183Z,1.20
2023-03-13T13:08:35.157Z,1.40
2023-03-13T13:09:35.138Z,1.00
2023-03-13T13:10:35.115Z,1.30
2023-03-13T13:11:35.110Z,1.50
2023-03-13T13:12:35.065Z,1.30